createdAt,value
2018-12-10T00:01:47.808Z,74.00
2018-12-10T00:04:17.060Z,74.79
2018-12-10T00:06:47.031Z,74.43
2018-12-10T00:09:14.290Z,75.22
2018-12-10T00:11:41.683Z,74.79
2018-12-10T00:14:09.005Z,74.40
2018-12-10T00:16:36.260Z,74.28
2018-12-10T00:19:03.629Z,74.77
2018-12-10T00:21:30.953Z,74.54
2018-12-10T00:23:58.232Z,74.76
2018-12-10T00:26:25.955Z,75.05
2018-12-10T00:28:53.646Z,74.29
2018-12-10T00:31:20.916Z,74.06
2018-12-10T00:33:48.169Z,74.37
2018-12-10T00:36:15.428Z,74.21
2018-12-10T00:38:42.785Z,73.64
2018-12-10T00:41:10.028Z,73.91
2018-12-10T00:43:38.644Z,73.67
2018-12-10T00:46:05.948Z,73.65
2018-12-10T00:48:33.171Z,74.02
2018-12-10T00:51:00.452Z,74.33
2018-12-10T00:53:27.715Z,74.78
2018-12-10T00:55:55.041Z,74.66
2018-12-10T00:58:22.312Z,74.85
2018-12-10T01:00:49.589Z,75.07
2018-12-10T01:03:16.810Z,75.18
2018-12-10T01:05:44.054Z,75.46
2018-12-10T01:08:11.298Z,75.42
2018-12-10T01:10:38.532Z,76.24
2018-12-10T01:13:05.884Z,76.91
2018-12-10T01:15:33.120Z,77.18
2018-12-10T01:18:00.468Z,77.26
2018-12-10T01:20:27.708Z,77.35
2018-12-10T01:22:54.969Z,77.40
2018-12-10T01:25:22.220Z,77.26
2018-12-10T01:27:49.448Z,76.98
2018-12-10T01:30:16.684Z,76.78
2018-12-10T01:32:43.945Z,76.39
2018-12-10T01:35:11.321Z,76.18
2018-12-10T01:37:38.565Z,76.70
2018-12-10T01:40:06.145Z,77.36
2018-12-10T01:42:33.388Z,77.51
2018-12-10T01:45:00.637Z,78.21
2018-12-10T01:47:27.889Z,78.83
2018-12-10T01:49:55.152Z,78.45
2018-12-10T01:52:22.396Z,78.07
2018-12-10T01:54:49.688Z,77.00
2018-12-10T01:57:16.934Z,76.15
2018-12-10T01:59:44.301Z,75.53
2018-12-10T02:02:11.678Z,75.19
2018-12-10T02:04:38.988Z,75.04
2018-12-10T02:07:06.220Z,75.04
2018-12-10T02:09:33.642Z,75.24
2018-12-10T02:12:00.892Z,75.33
2018-12-10T02:14:28.129Z,75.33
2018-12-10T02:16:55.537Z,75.13
2018-12-10T02:19:22.807Z,75.54
2018-12-10T02:21:50.101Z,76.43
2018-12-10T02:24:17.372Z,77.98
2018-12-10T02:26:45.728Z,78.69
2018-12-10T02:29:13.120Z,79.00
2018-12-10T02:31:40.709Z,79.87
2018-12-10T02:34:07.958Z,79.69
2018-12-10T02:36:36.340Z,79.84
2018-12-10T02:39:05.328Z,80.03
2018-12-10T02:41:34.593Z,80.03
2018-12-10T02:44:02.148Z,79.22
2018-12-10T02:46:29.524Z,78.97
2018-12-10T02:48:57.364Z,78.61
2018-12-10T02:51:24.753Z,78.59
2018-12-10T02:53:52.097Z,78.51
2018-12-10T02:56:20.358Z,77.95
2018-12-10T02:58:47.616Z,76.85
2018-12-10T03:01:14.844Z,76.87
2018-12-10T03:03:42.188Z,76.58
2018-12-10T03:06:09.756Z,76.10
2018-12-10T03:08:37.009Z,75.66
2018-12-10T03:11:04.255Z,76.10
2018-12-10T03:13:31.618Z,75.96
2018-12-10T03:15:58.870Z,75.79
2018-12-10T03:18:26.512Z,75.63
2018-12-10T03:20:53.764Z,74.71
2018-12-10T03:23:20.982Z,74.45
2018-12-10T03:25:48.209Z,74.18
2018-12-10T03:28:15.443Z,74.26
2018-12-10T03:30:42.793Z,73.19
2018-12-10T03:33:10.109Z,72.98
2018-12-10T03:35:37.571Z,72.23
2018-12-10T03:38:05.836Z,72.36
2018-12-10T03:40:33.296Z,72.48
2018-12-10T03:43:00.617Z,72.23
2018-12-10T03:45:27.833Z,71.85
2018-12-10T03:47:55.054Z,71.33
2018-12-10T03:50:22.284Z,71.18
2018-12-10T03:52:49.620Z,71.13
2018-12-10T03:55:16.832Z,70.50
2018-12-10T03:57:44.039Z,70.95
2018-12-10T04:00:11.272Z,71.30
2018-12-10T04:02:39.096Z,70.86
2018-12-10T04:05:06.367Z,71.05
2018-12-10T04:07:33.680Z,71.23
2018-12-10T04:10:00.912Z,70.95
2018-12-10T04:12:28.159Z,70.75
2018-12-10T04:14:55.365Z,70.74
2018-12-10T04:17:22.612Z,70.82
2018-12-10T04:19:49.829Z,70.96
2018-12-10T04:22:17.061Z,70.37
2018-12-10T04:24:45.715Z,69.72
2018-12-10T04:27:13.198Z,69.35
2018-12-10T04:29:40.585Z,69.56
2018-12-10T04:32:07.855Z,70.25
2018-12-10T04:34:36.208Z,69.83
2018-12-10T04:37:03.571Z,69.58
2018-12-10T04:39:30.838Z,69.61
2018-12-10T04:41:58.116Z,69.56
2018-12-10T04:44:27.028Z,69.93
2018-12-10T04:46:55.361Z,69.31
2018-12-10T04:49:22.567Z,69.21
2018-12-10T04:51:49.792Z,69.43
2018-12-10T04:54:16.997Z,69.37
2018-12-10T04:56:44.233Z,69.03
2018-12-10T04:59:11.448Z,70.11
2018-12-10T05:01:38.720Z,70.27
2018-12-10T05:04:06.044Z,70.31
2018-12-10T05:06:33.285Z,70.13
2018-12-10T05:09:00.516Z,70.01
2018-12-10T05:11:27.757Z,70.32
2018-12-10T05:13:54.996Z,70.83
2018-12-10T05:16:22.257Z,71.48
2018-12-10T05:18:49.607Z,70.88
2018-12-10T05:21:16.806Z,70.70
2018-12-10T05:23:44.044Z,70.33
2018-12-10T05:26:11.277Z,70.31
2018-12-10T05:28:38.524Z,70.13
2018-12-10T05:31:05.852Z,69.86
2018-12-10T05:33:33.087Z,70.07
2018-12-10T05:36:00.297Z,70.18
2018-12-10T05:38:28.548Z,70.03
2018-12-10T05:40:55.784Z,70.45
2018-12-10T05:43:23.012Z,70.53
2018-12-10T05:45:52.244Z,70.80
2018-12-10T05:48:20.569Z,70.90
2018-12-10T05:50:47.842Z,70.26
2018-12-10T05:53:16.285Z,70.37
2018-12-10T05:55:43.621Z,70.52
2018-12-10T05:58:11.013Z,70.23
2018-12-10T06:00:38.232Z,70.86
2018-12-10T06:03:05.460Z,70.63
2018-12-10T06:05:32.865Z,70.36
2018-12-10T06:08:00.079Z,70.96
2018-12-10T06:10:27.351Z,70.39
2018-12-10T06:12:54.565Z,70.62
2018-12-10T06:15:21.812Z,70.83
2018-12-10T06:17:49.024Z,70.15
2018-12-10T06:20:16.257Z,71.06
2018-12-10T06:22:43.469Z,72.12
2018-12-10T06:25:10.709Z,71.84
2018-12-10T06:27:38.052Z,71.82
2018-12-10T06:30:06.197Z,71.62
2018-12-10T06:32:33.532Z,72.11
2018-12-10T06:35:00.757Z,72.21
2018-12-10T06:37:27.969Z,72.04
2018-12-10T06:39:55.213Z,71.12
2018-12-10T06:42:22.444Z,70.56
2018-12-10T06:44:49.693Z,70.44
2018-12-10T06:47:16.908Z,69.69
2018-12-10T06:49:44.272Z,69.54
2018-12-10T06:52:11.595Z,69.63
2018-12-10T06:54:38.912Z,69.75
2018-12-10T06:57:06.276Z,69.35
2018-12-10T06:59:33.526Z,69.60
2018-12-10T07:02:00.833Z,69.64
2018-12-10T07:04:30.097Z,69.38
2018-12-10T07:06:57.332Z,70.01
2018-12-10T07:09:24.576Z,70.51
2018-12-10T07:11:51.840Z,70.65
2018-12-10T07:14:19.048Z,71.43
2018-12-10T07:16:46.289Z,71.86
2018-12-10T07:19:13.584Z,71.83
2018-12-10T07:21:40.818Z,72.09
2018-12-10T07:24:08.016Z,73.02
2018-12-10T07:26:35.245Z,73.46
2018-12-10T07:29:03.624Z,74.09
2018-12-10T07:31:30.875Z,73.98
2018-12-10T07:33:58.084Z,74.58
2018-12-10T07:36:25.338Z,74.84
2018-12-10T07:38:52.544Z,74.68
2018-12-10T07:41:19.784Z,74.73
2018-12-10T07:43:47.008Z,74.30
2018-12-10T07:46:14.264Z,73.87
2018-12-10T07:48:41.470Z,74.07
2018-12-10T07:51:08.681Z,73.47
2018-12-10T07:53:35.900Z,73.47
2018-12-10T07:56:03.250Z,73.46
2018-12-10T07:58:33.752Z,73.64
2018-12-10T08:01:00.963Z,74.11
2018-12-10T08:03:28.188Z,73.68
2018-12-10T08:05:55.444Z,73.72
2018-12-10T08:08:22.904Z,73.29
2018-12-10T08:10:51.300Z,73.54
2018-12-10T08:13:18.660Z,75.10
2018-12-10T08:15:45.901Z,75.12
2018-12-10T08:18:13.149Z,75.61
2018-12-10T08:20:40.353Z,75.46
2018-12-10T08:23:07.592Z,75.03
2018-12-10T08:25:34.829Z,74.71
2018-12-10T08:28:03.105Z,74.83
2018-12-10T08:30:30.380Z,75.64
2018-12-10T08:32:57.616Z,76.08
2018-12-10T08:35:26.019Z,76.65
2018-12-10T08:37:53.938Z,76.65
2018-12-10T08:40:21.268Z,77.44
2018-12-10T08:42:48.612Z,77.55
2018-12-10T08:45:15.836Z,77.94
2018-12-10T08:47:44.082Z,77.08
2018-12-10T08:50:12.477Z,77.25
2018-12-10T08:52:40.120Z,77.81
2018-12-10T08:55:08.425Z,77.91
2018-12-10T08:57:35.785Z,78.73
2018-12-10T09:00:04.699Z,78.94
2018-12-10T09:02:34.072Z,79.02
2018-12-10T09:05:01.407Z,78.63
2018-12-10T09:07:28.832Z,78.80
2018-12-10T09:09:57.085Z,78.77
2018-12-10T09:12:24.340Z,78.70
2018-12-10T09:14:51.589Z,78.44
2018-12-10T09:17:18.921Z,77.58
2018-12-10T09:19:46.269Z,77.46
2018-12-10T09:22:13.736Z,76.86
2018-12-10T09:24:40.966Z,75.93
2018-12-10T09:27:08.176Z,75.62
2018-12-10T09:29:35.549Z,76.37
2018-12-10T09:32:03.225Z,75.77
2018-12-10T09:34:30.481Z,76.27
2018-12-10T09:36:57.688Z,75.52
2018-12-10T09:39:24.923Z,76.39
2018-12-10T09:41:52.124Z,76.97
2018-12-10T09:44:19.359Z,77.35
2018-12-10T09:46:46.699Z,77.56
2018-12-10T09:49:14.216Z,77.74
2018-12-10T09:51:42.936Z,77.34
2018-12-10T09:54:10.429Z,76.79
2018-12-10T09:56:37.671Z,75.73
2018-12-10T09:59:05.041Z,75.18
2018-12-10T10:01:32.412Z,74.25
2018-12-10T10:03:59.664Z,73.50
2018-12-10T10:06:26.916Z,73.70
2018-12-10T10:08:54.141Z,72.67
2018-12-10T10:11:21.388Z,71.74
2018-12-10T10:13:48.825Z,71.13
2018-12-10T10:16:16.049Z,70.38
2018-12-10T10:18:43.271Z,68.97
2018-12-10T10:21:11.468Z,69.72
2018-12-10T10:23:39.020Z,69.40
2018-12-10T10:26:06.360Z,68.96
2018-12-10T10:28:33.588Z,68.12
2018-12-10T10:31:00.952Z,67.59
2018-12-10T10:33:32.368Z,68.21
2018-12-10T10:35:57.407Z,68.78
2018-12-10T10:38:24.810Z,68.37
2018-12-10T10:40:52.175Z,68.68
2018-12-10T10:43:19.401Z,69.20
2018-12-10T10:45:46.653Z,68.53
2018-12-10T10:48:13.876Z,68.96
2018-12-10T10:50:41.108Z,68.23
2018-12-10T10:53:08.444Z,68.64
2018-12-10T10:55:35.773Z,67.68
2018-12-10T10:58:03.072Z,67.25
2018-12-10T11:00:36.062Z,65.97
2018-12-10T11:03:08.956Z,66.28
2018-12-10T11:05:36.369Z,67.55
2018-12-10T11:08:03.613Z,68.43
2018-12-10T11:10:30.838Z,69.46
2018-12-10T11:12:58.688Z,69.79
2018-12-10T11:15:25.900Z,71.61
2018-12-10T11:17:53.155Z,72.32
2018-12-10T11:20:20.380Z,75.21
2018-12-10T11:22:47.974Z,77.35
2018-12-10T11:25:15.695Z,76.48
2018-12-10T11:27:43.064Z,75.58
2018-12-10T11:30:10.280Z,74.94
2018-12-10T11:32:37.865Z,74.55
2018-12-10T11:35:05.188Z,75.84
2018-12-10T11:37:32.573Z,75.78
2018-12-10T11:39:59.901Z,75.30
2018-12-10T11:42:27.116Z,75.45
2018-12-10T11:44:54.356Z,76.22
2018-12-10T11:47:21.577Z,75.37
2018-12-10T11:49:48.949Z,75.52
2018-12-10T11:52:16.160Z,74.82
2018-12-10T11:54:43.408Z,75.16
2018-12-10T11:57:10.627Z,74.86
2018-12-10T11:59:37.861Z,74.75
2018-12-10T12:02:05.137Z,74.51
2018-12-10T12:04:32.380Z,73.77
2018-12-10T12:07:01.627Z,72.99
2018-12-10T12:09:29.219Z,73.54
2018-12-10T12:11:56.836Z,73.32
2018-12-10T12:14:24.162Z,72.45
2018-12-10T12:16:51.408Z,73.55
2018-12-10T12:19:18.736Z,73.38
2018-12-10T12:21:45.955Z,73.66
2018-12-10T12:24:13.217Z,72.78
2018-12-10T12:26:40.508Z,71.83
2018-12-10T12:29:07.763Z,71.73
2018-12-10T12:31:35.004Z,71.26
2018-12-10T12:34:02.219Z,71.00
2018-12-10T12:36:29.468Z,70.88
2018-12-10T12:38:57.602Z,70.69
2018-12-10T12:41:24.820Z,69.24
2018-12-10T12:43:52.025Z,70.72
2018-12-10T12:46:19.289Z,70.75
2018-12-10T12:48:46.493Z,70.66
2018-12-10T12:51:13.724Z,70.22
2018-12-10T12:53:40.989Z,69.01
2018-12-10T12:56:08.260Z,68.75
2018-12-10T12:58:35.473Z,69.55
2018-12-10T13:01:02.712Z,71.57
2018-12-10T13:03:29.926Z,72.14
2018-12-10T13:05:57.180Z,73.91
2018-12-10T13:08:30.958Z,74.85
2018-12-10T13:10:53.944Z,76.11
2018-12-10T13:13:21.284Z,76.12
2018-12-10T13:15:48.536Z,77.01
2018-12-10T13:18:15.758Z,77.62
2018-12-10T13:20:43.028Z,77.18
2018-12-10T13:23:10.238Z,75.65
2018-12-10T13:25:37.484Z,74.77
2018-12-10T13:28:04.690Z,74.71
2018-12-10T13:30:32.090Z,73.91
2018-12-10T13:32:59.489Z,72.55
2018-12-10T13:35:26.880Z,72.34
2018-12-10T13:37:54.441Z,72.56
2018-12-10T13:40:21.681Z,73.17
2018-12-10T13:42:49.040Z,72.93
2018-12-10T13:45:16.249Z,72.32
2018-12-10T13:47:44.745Z,72.00
2018-12-10T13:50:11.957Z,71.94
2018-12-10T13:52:39.193Z,72.58
2018-12-10T13:55:06.428Z,73.21
2018-12-10T13:57:33.667Z,73.09
2018-12-10T14:00:00.884Z,74.14
2018-12-10T14:02:30.418Z,74.46
2018-12-10T14:05:01.693Z,74.52
2018-12-10T14:07:30.368Z,75.37
2018-12-10T14:09:57.579Z,75.56
2018-12-10T14:12:24.853Z,75.23
2018-12-10T14:14:52.104Z,75.87
2018-12-10T14:17:19.447Z,76.20
2018-12-10T14:19:46.664Z,76.40
2018-12-10T14:22:13.933Z,76.33
2018-12-10T14:24:41.188Z,76.14
2018-12-10T14:27:08.477Z,76.00
2018-12-10T14:29:35.696Z,75.51
2018-12-10T14:32:03.392Z,74.89
2018-12-10T14:34:30.649Z,73.89
2018-12-10T14:36:57.858Z,73.63
2018-12-10T14:39:25.318Z,72.58
2018-12-10T14:41:52.597Z,73.17
2018-12-10T14:44:19.829Z,72.99
2018-12-10T14:46:47.037Z,73.37
2018-12-10T14:49:14.268Z,73.09
2018-12-10T14:51:41.588Z,73.04
2018-12-10T14:54:09.084Z,72.93
2018-12-10T14:56:36.300Z,73.28
2018-12-10T14:59:03.576Z,73.33
2018-12-10T15:01:30.916Z,73.26
2018-12-10T15:03:58.152Z,73.38
2018-12-10T15:06:26.492Z,73.27
2018-12-10T15:08:53.738Z,73.48
2018-12-10T15:11:21.017Z,72.83
2018-12-10T15:13:48.260Z,72.74
2018-12-10T15:16:15.469Z,73.12
2018-12-10T15:18:43.206Z,72.87
2018-12-10T15:21:10.536Z,73.02
2018-12-10T15:23:37.748Z,72.81
2018-12-10T15:26:04.985Z,72.98
2018-12-10T15:28:32.211Z,73.24
2018-12-10T15:30:59.556Z,73.69
2018-12-10T15:33:26.776Z,73.57
2018-12-10T15:35:54.009Z,74.07
2018-12-10T15:38:21.217Z,73.99
2018-12-10T15:40:48.489Z,74.74
2018-12-10T15:43:15.723Z,74.72
2018-12-10T15:45:42.960Z,74.30
2018-12-10T15:48:10.220Z,74.94
2018-12-10T15:50:37.464Z,74.51
2018-12-10T15:53:04.692Z,73.85
2018-12-10T15:55:32.048Z,73.01
2018-12-10T15:57:59.296Z,72.56
2018-12-10T16:00:26.511Z,72.18
2018-12-10T16:02:53.750Z,71.98
2018-12-10T16:05:20.948Z,71.81
2018-12-10T16:07:48.188Z,71.81
2018-12-10T16:10:15.424Z,71.44
2018-12-10T16:12:42.669Z,71.41
2018-12-10T16:15:09.891Z,71.33
2018-12-10T16:17:37.354Z,71.77
2018-12-10T16:20:06.309Z,71.92
2018-12-10T16:22:33.535Z,72.17
2018-12-10T16:25:00.760Z,71.68
2018-12-10T16:27:30.096Z,72.14
2018-12-10T16:29:58.421Z,72.84
2018-12-10T16:32:25.676Z,72.94
2018-12-10T16:34:52.945Z,73.83
2018-12-10T16:37:20.308Z,73.97
2018-12-10T16:39:47.586Z,74.14
2018-12-10T16:42:14.829Z,73.24
2018-12-10T16:44:42.094Z,73.81
2018-12-10T16:47:09.360Z,73.92
2018-12-10T16:49:36.601Z,73.92
2018-12-10T16:52:04.122Z,73.95
2018-12-10T16:54:31.334Z,73.72
2018-12-10T16:56:59.888Z,72.73
2018-12-10T16:59:27.229Z,73.82
2018-12-10T17:01:54.444Z,74.24
2018-12-10T17:04:21.656Z,74.59
2018-12-10T17:06:49.022Z,74.66
2018-12-10T17:09:16.290Z,74.46
2018-12-10T17:11:43.862Z,75.03
2018-12-10T17:14:11.421Z,75.37
2018-12-10T17:16:39.865Z,75.37
2018-12-10T17:19:07.091Z,74.88
2018-12-10T17:21:34.647Z,74.53
2018-12-10T17:24:01.921Z,74.11
2018-12-10T17:26:29.264Z,74.17
2018-12-10T17:28:56.485Z,74.47
2018-12-10T17:31:23.959Z,74.34
2018-12-10T17:33:51.460Z,74.47
2018-12-10T17:36:20.828Z,75.24
2018-12-10T17:38:48.072Z,75.00
2018-12-10T17:41:15.329Z,75.05
2018-12-10T17:43:42.552Z,75.29
2018-12-10T17:46:09.784Z,75.29
2018-12-10T17:48:37.072Z,75.39
2018-12-10T17:51:04.304Z,75.43
2018-12-10T17:53:31.756Z,75.54
2018-12-10T17:56:00.036Z,76.05
2018-12-10T17:58:27.292Z,75.98
2018-12-10T18:00:55.648Z,76.45
2018-12-10T18:03:24.087Z,76.74
2018-12-10T18:05:51.310Z,77.00
2018-12-10T18:08:18.569Z,76.91
2018-12-10T18:10:45.776Z,77.22
2018-12-10T18:13:13.010Z,77.45
2018-12-10T18:15:40.221Z,77.10
2018-12-10T18:18:07.459Z,77.24
2018-12-10T18:20:34.742Z,77.37
2018-12-10T18:23:02.200Z,77.25
2018-12-10T18:25:29.425Z,77.16
2018-12-10T18:27:56.866Z,78.00
2018-12-10T18:30:24.085Z,77.55
2018-12-10T18:32:51.325Z,78.38
2018-12-10T18:35:18.528Z,78.18
2018-12-10T18:37:45.785Z,78.60
2018-12-10T18:40:13.171Z,78.59
2018-12-10T18:42:40.528Z,78.35
2018-12-10T18:45:11.179Z,78.47
2018-12-10T18:47:38.459Z,78.36
2018-12-10T18:50:05.870Z,78.46
2018-12-10T18:52:33.248Z,79.02
2018-12-10T18:55:00.464Z,79.20
2018-12-10T18:57:27.701Z,78.74
2018-12-10T18:59:55.062Z,78.79
2018-12-10T19:02:22.376Z,78.67
2018-12-10T19:04:49.596Z,78.53
2018-12-10T19:07:16.837Z,78.61
2018-12-10T19:09:44.068Z,78.77
2018-12-10T19:12:18.320Z,78.90
2018-12-10T19:14:45.697Z,78.71
2018-12-10T19:17:12.969Z,78.63
2018-12-10T19:19:40.504Z,78.86
2018-12-10T19:22:08.249Z,78.23
2018-12-10T19:24:35.842Z,78.30
2018-12-10T19:27:03.204Z,78.50
2018-12-10T19:29:30.497Z,78.10
2018-12-10T19:31:57.749Z,78.77
2018-12-10T19:34:24.992Z,78.83
2018-12-10T19:36:52.323Z,78.90
2018-12-10T19:39:19.600Z,78.69
2018-12-10T19:41:47.696Z,78.53
2018-12-10T19:44:14.979Z,78.51
2018-12-10T19:46:42.232Z,78.66
2018-12-10T19:49:09.473Z,78.80
2018-12-10T19:51:36.870Z,78.99
2018-12-10T19:54:04.132Z,79.24
2018-12-10T19:56:31.436Z,78.96
2018-12-10T19:58:58.846Z,78.11
2018-12-10T20:01:26.138Z,78.17
2018-12-10T20:03:53.606Z,78.11
2018-12-10T20:06:26.604Z,78.13
2018-12-10T20:08:53.885Z,77.99
2018-12-10T20:11:21.130Z,77.37
2018-12-10T20:13:48.439Z,77.92
2018-12-10T20:16:15.665Z,77.80
2018-12-10T20:18:43.277Z,79.04
2018-12-10T20:21:10.502Z,77.04
2018-12-10T20:23:37.744Z,76.20
2018-12-10T20:26:05.152Z,76.64
2018-12-10T20:28:33.586Z,76.92
2018-12-10T20:31:00.914Z,76.75
2018-12-10T20:33:28.137Z,77.15
2018-12-10T20:35:55.505Z,77.15
2018-12-10T20:38:24.840Z,78.23
2018-12-10T20:40:52.077Z,77.54
2018-12-10T20:43:19.346Z,77.08
2018-12-10T20:45:46.768Z,77.33
2018-12-10T20:48:14.005Z,77.77
2018-12-10T20:50:41.209Z,77.25
2018-12-10T20:53:08.583Z,76.90
2018-12-10T20:55:35.837Z,76.90
2018-12-10T20:58:04.445Z,76.83
2018-12-10T21:00:32.850Z,76.91
2018-12-10T21:03:00.105Z,76.46
2018-12-10T21:05:27.322Z,77.12
2018-12-10T21:07:54.554Z,77.01
2018-12-10T21:10:21.844Z,77.55
2018-12-10T21:12:49.064Z,77.64
2018-12-10T21:15:16.292Z,77.53
2018-12-10T21:17:43.503Z,77.64
2018-12-10T21:20:10.729Z,77.73
2018-12-10T21:22:38.112Z,77.06
2018-12-10T21:25:05.704Z,77.36
2018-12-10T21:27:32.913Z,78.00
2018-12-10T21:30:00.137Z,78.40
2018-12-10T21:32:27.509Z,77.71
2018-12-10T21:34:54.728Z,77.77
2018-12-10T21:37:21.936Z,78.08
2018-12-10T21:39:49.152Z,78.29
2018-12-10T21:42:16.368Z,77.71
2018-12-10T21:44:43.746Z,77.87
2018-12-10T21:47:10.949Z,77.72
2018-12-10T21:49:38.180Z,77.94
2018-12-10T21:52:05.393Z,78.24
2018-12-10T21:54:32.604Z,78.75
2018-12-10T21:57:03.568Z,78.79
2018-12-10T21:59:32.309Z,78.74
2018-12-10T22:01:59.534Z,79.02
2018-12-10T22:04:26.875Z,79.32
2018-12-10T22:06:54.101Z,78.99
2018-12-10T22:09:21.312Z,79.06
2018-12-10T22:11:48.528Z,78.75
2018-12-10T22:14:15.786Z,79.09
2018-12-10T22:16:42.992Z,78.98
2018-12-10T22:19:10.244Z,78.67
2018-12-10T22:21:37.469Z,78.58
2018-12-10T22:24:04.704Z,78.92
2018-12-10T22:26:31.907Z,78.57
2018-12-10T22:28:59.136Z,78.44
2018-12-10T22:31:26.332Z,79.13
2018-12-10T22:33:53.600Z,78.67
2018-12-10T22:36:20.893Z,78.11
2018-12-10T22:38:48.144Z,78.41
2018-12-10T22:41:15.377Z,78.69
2018-12-10T22:43:42.592Z,79.07
2018-12-10T22:46:09.808Z,78.61
2018-12-10T22:48:37.060Z,79.04
2018-12-10T22:51:05.296Z,78.35
2018-12-10T22:53:32.495Z,78.30
2018-12-10T22:55:59.828Z,78.85
2018-12-10T22:58:27.039Z,78.66
2018-12-10T23:00:54.383Z,77.94
2018-12-10T23:03:22.368Z,78.13
2018-12-10T23:05:50.288Z,78.47
2018-12-10T23:08:17.548Z,78.18
2018-12-10T23:10:44.760Z,77.99
2018-12-10T23:13:12.089Z,78.57
2018-12-10T23:15:39.316Z,78.26
2018-12-10T23:18:06.536Z,77.52
2018-12-10T23:20:33.877Z,77.13
2018-12-10T23:23:01.116Z,77.13
2018-12-10T23:25:28.555Z,77.34
2018-12-10T23:27:55.768Z,77.51
2018-12-10T23:30:23.004Z,77.37
2018-12-10T23:32:50.206Z,77.79
2018-12-10T23:35:19.558Z,77.60
2018-12-10T23:37:47.797Z,77.24
2018-12-10T23:40:16.087Z,77.35
2018-12-10T23:42:49.104Z,76.91
2018-12-10T23:45:17.320Z,77.05
2018-12-10T23:47:44.546Z,77.32
2018-12-10T23:50:13.921Z,77.31
2018-12-10T23:52:41.174Z,77.33
2018-12-10T23:55:08.716Z,77.25
2018-12-10T23:57:35.953Z,77.09
